Station: Halls Creek  

  Atmospheric Gas Attenuation - ITU Rec 676-11   ----------------- dB/100km -----------------
Date Time Temp RH % AH g/m3 Dew Point Wind Direction Speed kph Gust kph Barometer mB Rainfall Since 9am 24GHz 47GHz 76GHz 122GHz 134GHz 241GHz
08/05 11:00 21.2 36 6.67 5.5 33 41 1018.3 15.2 21.3 29.7 77.6 67.6 231.3
08/05 10:50 20.7 36 6.48 5.1 30 35 1018.4 14.8 21.1 29.3 76.3 65.9 225.3
08/05 10:40 20.5 37 6.58 5.3 28 32 1018.4 15.0 21.3 29.7 77.4 67.2 229.8
08/05 10:30 20.2 37 6.47 5.1 37 44 1018.4 14.8 21.2 29.4 76.7 66.2 226.3
08/05 10:20 20.4 38 6.72 5.6 30 39 1018.6 15.3 21.5 30.2 78.8 68.9 235.7
08/05 10:10 19.8 38 6.49 5.1 33 37 1018.7 14.9 21.4 29.6 77.3 66.8 228.2
08/05 10:00 19.4 38 6.34 4.7 33 43 1018.4 14.6 21.2 29.2 76.3 65.4 223.3
08/05 09:50 19.1 39 6.39 4.8 37 44 1018.4 14.7 21.4 29.5 77.0 66.2 226.1
08/05 09:40 18.8 40 6.44 4.9 33 44 1018.6 14.8 21.5 29.8 77.8 67.0 229.0
08/05 09:30 18.4 40 6.29 4.6 37 43 1018.3 14.5 21.4 29.4 76.7 65.6 224.0
08/05 09:20 18.5 42 6.64 5.4 20 33 1018.2 15.2 21.9 30.6 79.9 69.5 237.9
08/05 09:10 18.3 42 6.57 5.2 24 28 1018 15.1 21.8 30.4 79.4 68.9 235.6
08/05 09:00 17.7 42 6.34 4.6 28 33 1017.9 14.6 21.6 29.8 77.8 66.7 227.9
08/05 08:50 17.7 43 6.49 5 32 37 1017.9 14.9 21.8 30.4 79.2 68.5 234.0
08/05 08:40 17.2 44 6.44 4.9 30 37 1017.9 14.9 21.9 30.4 79.2 68.3 233.4
08/05 08:30 17 45 6.51 5 26 35 1017.8 15.0 22.0 30.7 80.1 69.3 236.8
08/05 08:20 16.7 46 6.54 5 24 32 1017.9 15.1 22.1 30.9 80.7 69.9 239.0
08/05 08:10 16.5 46 6.46 4.9 24 32 1017.9 14.9 22.1 30.7 80.1 69.2 236.3
08/05 08:00 16.2 46 6.34 4.6 30 37 1017.7 14.7 22.0 30.4 79.3 68.0 232.1
08/05 07:50 16.1 46 6.31 4.5 28 33 1017.6 14.6 21.9 30.3 79.1 67.7 231.1
08/05 07:40 15.9 46 6.23 4.3 32 37 1017.5 14.5 21.9 30.1 78.5 66.9 228.4
08/05 07:30 15.7 47 6.29 4.4 24 32 1017.5 14.6 22.0 30.4 79.3 67.8 231.4
08/05 07:20 15.8 46 6.19 4.2 32 37 1017.4 14.4 21.8 30.0 78.2 66.5 227.0
08/05 07:10 15.8 46 6.19 4.2 33 41 1017.2 14.4 21.8 30.0 78.2 66.5 227.0
08/05 07:00 15.8 47 6.33 4.5 30 33 1017.2 14.7 22.0 30.5 79.5 68.2 232.8
08/05 06:50 15.7 47 6.29 4.4 24 28 1017.1 14.6 22.0 30.4 79.2 67.8 231.4
08/05 06:40 15.8 46 6.19 4.2 26 30 1017 14.4 21.8 30.0 78.2 66.5 226.9
08/05 06:30 15.9 46 6.23 4.3 24 32 1017 14.5 21.9 30.1 78.4 66.9 228.3
08/05 06:20 16.2 45 6.21 4.3 30 35 1016.9 14.4 21.7 29.9 78.0 66.4 226.6
08/05 06:10 16.1 45 6.17 4.2 28 37 1016.9 14.3 21.7 29.8 77.7 66.0 225.2
08/05 06:00 16 45 6.13 4.1 22 28 1016.8 14.3 21.7 29.7 77.4 65.6 223.9
08/05 05:50 16 45 6.13 4.1 24 26 1016.7 14.3 21.7 29.7 77.4 65.6 223.8
08/05 05:40 15.9 46 6.23 4.3 19 20 1016.7 14.5 21.8 30.1 78.4 66.9 228.2
08/05 05:30 15.9 46 6.23 4.3 19 20 1016.8 14.5 21.8 30.1 78.4 66.9 228.3
08/05 05:20 16.1 45 6.17 4.2 19 22 1016.7 14.3 21.7 29.8 77.7 66.0 225.2
08/05 05:10 16.1 45 6.17 4.2 17 20 1016.7 14.3 21.7 29.8 77.7 66.0 225.2
08/05 05:00 16.1 45 6.17 4.2 19 22 1016.6 14.3 21.7 29.8 77.6 66.0 225.2
08/05 04:50 16 45 6.13 4.1 19 20 1016.6 14.3 21.7 29.7 77.4 65.6 223.8
08/05 04:40 15.8 46 6.19 4.2 17 22 1016.5 14.4 21.8 29.9 78.1 66.5 226.8
08/05 04:30 15.9 46 6.23 4.3 17 19 1016.5 14.5 21.8 30.1 78.4 66.9 228.2
08/05 04:20 16 45 6.13 4.1 17 20 1016.6 14.3 21.7 29.7 77.4 65.6 223.8
08/05 04:10 16 46 6.27 4.4 17 20 1016.5 14.5 21.9 30.2 78.7 67.3 229.6
08/05 04:00 16.1 46 6.31 4.5 17 20 1016.5 14.6 21.9 30.3 79.0 67.6 230.9
08/05 03:50 15.6 48 6.38 4.6 15 17 1016.6 14.8 22.1 30.7 80.1 68.9 235.3
08/05 03:40 15.4 49 6.44 4.8 11 15 1016.7 14.9 22.3 31.0 80.9 69.8 238.4
08/05 03:30 15.6 49 6.52 4.9 13 15 1016.8 15.1 22.3 31.2 81.5 70.6 241.2
08/05 03:20 15.9 47 6.36 4.6 13 15 1016.9 14.7 22.0 30.5 79.7 68.4 233.7
08/05 03:10 15.9 48 6.5 4.9 11 13 1017.1 15.0 22.2 31.0 81.0 70.1 239.5
08/05 03:00 15.8 48 6.46 4.8 11 13 1017 15.0 22.2 30.9 80.7 69.7 238.1
08/05 02:50 16.1 47 6.44 4.8 11 13 1016.9 14.9 22.1 30.7 80.2 69.2 236.4
08/05 02:40 16 47 6.4 4.7 11 13 1017 14.8 22.1 30.6 80.0 68.8 235.0
08/05 02:30 16.5 45 6.32 4.5 13 15 1017 14.6 21.8 30.2 78.7 67.5 230.3
08/05 02:20 16.5 45 6.32 4.5 15 15 1017.1 14.6 21.8 30.2 78.7 67.5 230.3
08/05 02:10 16.5 44 6.18 4.2 13 17 1017.2 14.3 21.6 29.7 77.4 65.8 224.6
08/05 02:00 16.6 44 6.22 4.3 15 17 1017.2 14.4 21.7 29.8 77.7 66.2 226.0
08/05 01:50 16.7 44 6.25 4.4 13 17 1017.2 14.5 21.7 29.9 77.9 66.5 226.9
08/05 01:40 16.8 44 6.29 4.5 13 17 1017.3 14.6 21.7 30.0 78.2 66.9 228.3
08/05 01:30 16.9 44 6.33 4.6 13 13 1017.4 14.6 21.8 30.1 78.5 67.3 229.7
08/05 01:20 17.1 43 6.26 4.4 13 15 1017.5 14.5 21.6 29.8 77.6 66.3 226.3
08/05 01:10 17.3 43 6.33 4.6 13 15 1017.5 14.6 21.7 29.9 78.1 66.9 228.6
08/05 01:00 17.4 43 6.37 4.7 13 17 1017.5 14.7 21.7 30.0 78.4 67.3 229.9
08/05 00:50 17.5 42 6.26 4.5 13 15 1017.6 14.5 21.5 29.6 77.2 66.0 225.2
08/05 00:40 17.9 41 6.26 4.5 13 15 1017.6 14.5 21.4 29.5 76.9 65.6 224.1
08/05 00:30 18 40 6.14 4.2 17 17 1017.6 14.2 21.3 29.0 75.7 64.2 219.0
08/05 00:20 18.3 39 6.1 4.1 13 15 1017.7 14.1 21.1 28.8 75.0 63.5 216.6
08/05 00:10 18.3 39 6.1 4.1 15 19 1017.7 14.1 21.1 28.8 75.0 63.5 216.6
08/05 00:00 18 41 6.3 4.6 15 19 1017.8 14.5 21.5 29.6 77.2 66.0 225.5
07/05 23:50 17.8 42 6.37 4.7 11 11 1017.8 14.7 21.6 29.9 78.0 67.0 228.8
07/05 23:40 18.1 41 6.33 4.7 11 11 1017.9 14.6 21.5 29.7 77.4 66.3 226.4
07/05 23:30 18.4 40 6.29 4.6 11 13 1017.8 14.5 21.4 29.4 76.7 65.6 224.0
07/05 23:20 18.6 40 6.37 4.8 13 15 1017.7 14.7 21.4 29.6 77.2 66.3 226.6
07/05 23:10 18.9 38 6.16 4.3 13 13 1017.8 14.2 21.1 28.8 75.0 63.7 217.4
07/05 23:00 19.1 37 6.06 4.1 15 17 1017.8 14.0 20.9 28.4 73.9 62.4 212.9
07/05 22:50 19.1 38 6.23 4.5 13 17 1017.8 14.3 21.1 29.0 75.5 64.3 219.7
07/05 22:40 19.1 40 6.56 5.2 13 15 1017.8 15.0 21.6 30.1 78.5 68.1 232.8
07/05 22:30 19.3 39 6.47 5 13 15 1017.8 14.8 21.4 29.7 77.5 66.9 228.7
07/05 22:20 19.7 38 6.45 5 15 15 1017.8 14.8 21.3 29.5 76.9 66.3 226.8
07/05 22:10 20.4 35 6.19 4.4 15 19 1017.8 14.2 20.8 28.4 73.9 62.9 214.7
07/05 22:00 21.1 34 6.26 4.6 19 26 1017.8 14.3 20.7 28.4 73.9 63.1 215.6
07/05 21:50 21.3 33 6.15 4.4 17 20 1017.8 14.1 20.5 27.9 72.8 61.7 210.8
07/05 21:40 21.2 34 6.3 4.7 20 22 1017.8 14.4 20.8 28.5 74.2 63.5 216.8
07/05 21:30 21.3 35 6.52 5.2 19 20 1017.8 14.9 21.0 29.2 76.1 65.8 225.1
07/05 21:20 21 36 6.59 5.4 15 19 1017.7 15.0 21.2 29.5 77.0 66.8 228.7
07/05 21:10 21.1 36 6.63 5.5 13 15 1017.5 15.1 21.2 29.6 77.2 67.2 229.9
07/05 21:00 21.1 36 6.63 5.5 11 15 1017.4 15.1 21.2 29.6 77.2 67.2 229.9
07/05 20:50 21.5 35 6.6 5.4 17 22 1017.4 15.0 21.1 29.4 76.6 66.5 227.6
07/05 20:40 21.3 36 6.71 5.6 13 15 1017.4 15.3 21.3 29.8 77.8 67.9 232.5
07/05 20:30 21.5 36 6.79 5.8 13 13 1017.2 15.4 21.3 30.0 78.3 68.6 235.0
07/05 20:20 21.5 36 6.79 5.8 11 13 1017.1 15.4 21.3 30.0 78.3 68.6 235.0
07/05 20:10 21.7 37 7.06 6.4 13 13 1017 16.0 21.7 30.8 80.5 71.5 245.0
07/05 20:00 22 36 6.99 6.3 11 13 1016.9 15.8 21.5 30.5 79.6 70.4 241.3
07/05 19:50 22.1 36 7.03 6.3 13 13 1016.8 15.9 21.5 30.6 79.8 70.8 242.6
07/05 19:40 22.1 36 7.03 6.3 11 13 1016.7 15.9 21.5 30.6 79.8 70.8 242.6
07/05 19:30 22.3 36 7.11 6.5 13 15 1016.5 16.1 21.6 30.7 80.3 71.5 245.1
07/05 19:20 22.4 35 6.95 6.2 13 15 1016.5 15.7 21.3 30.2 78.8 69.6 238.5
07/05 19:10 22.7 35 7.07 6.5 13 13 1016.2 16.0 21.4 30.5 79.6 70.6 242.3
07/05 19:00 22.8 34 6.91 6.1 13 13 1016.1 15.6 21.2 29.9 78.0 68.8 235.7
07/05 18:50 23.1 33 6.82 6 13 13 1016 15.4 21.0 29.5 76.9 67.5 231.4
07/05 18:40 23.5 32 6.77 5.9 13 19 1015.9 15.3 20.8 29.2 76.1 66.7 228.3
07/05 18:30 23.7 32 6.84 6 17 22 1015.8 15.5 20.9 29.3 76.5 67.2 230.4

Last Refresh: 08-May-2026 11:04:08

Bureau of Meteorology